Time;durP1;ratioP1;P1;durP2;ratioP2;P2;SDS_P1;SDS_P2;PMS_P1;PMS_P2;Temp;Humidity;BMP_temperature;BMP_pressure;BME280_temperature;BME280_humidity;BME280_pressure;Samples;Min_cycle;Max_cycle;Signal;HPM_P1;HPM_P2
2022/10/24 00:01:59;;;;;;;9.48;4.35;;;;;;;;;;5030714;28;20104;-68
2022/10/24 00:04:24;;;;;;;13.47;5.57;;;;;;;;;;5039393;28;20074;-67
2022/10/24 00:06:49;;;;;;;16.93;6.10;;;;;;;;;;5040782;28;20332;-68
2022/10/24 00:09:14;;;;;;;16.15;5.03;;;;;;;;;;5034324;28;20266;-68
2022/10/24 00:11:40;;;;;;;16.45;6.18;;;;;;;;;;5028635;28;20029;-67
2022/10/24 00:14:05;;;;;;;16.13;5.30;;;;;;;;;;5029795;28;20029;-66
2022/10/24 00:16:31;;;;;;;17.37;5.50;;;;;;;;;;5029173;28;20794;-67
2022/10/24 00:18:56;;;;;;;13.00;4.72;;;;;;;;;;5031833;28;20265;-67
2022/10/24 00:21:21;;;;;;;9.15;4.32;;;;;;;;;;5050002;28;20483;-68
2022/10/24 00:23:46;;;;;;;12.48;5.00;;;;;;;;;;5017135;28;20571;-66
2022/10/24 00:26:12;;;;;;;11.98;4.40;;;;;;;;;;5029046;28;20022;-68
2022/10/24 00:28:38;;;;;;;12.05;4.57;;;;;;;;;;5023245;28;20026;-68
2022/10/24 00:31:05;;;;;;;26.77;5.90;;;;;;;;;;5034617;28;20025;-67
2022/10/24 00:33:30;;;;;;;12.95;5.15;;;;;;;;;;5030442;28;20044;-67
2022/10/24 00:35:55;;;;;;;14.13;4.30;;;;;;;;;;5041596;28;20037;-67
2022/10/24 00:38:21;;;;;;;12.90;5.07;;;;;;;;;;5029374;28;20084;-66
2022/10/24 00:40:46;;;;;;;15.45;4.95;;;;;;;;;;5029779;28;20018;-66
2022/10/24 00:43:19;;;;;;;13.55;5.95;;;;;;;;;;5029451;28;20031;-66
2022/10/24 00:45:44;;;;;;;15.52;5.65;;;;;;;;;;5030035;28;20025;-67
2022/10/24 00:48:15;;;;;;;13.73;4.82;;;;;;;;;;5030945;28;20018;-66
2022/10/24 00:50:40;;;;;;;13.30;4.55;;;;;;;;;;5040497;28;20507;-66
2022/10/24 00:53:06;;;;;;;12.85;5.00;;;;;;;;;;5029422;28;20026;-65
2022/10/24 00:55:31;;;;;;;12.60;5.18;;;;;;;;;;5029131;28;20022;-68
2022/10/24 00:58:00;;;;;;;13.67;4.17;;;;;;;;;;5032272;28;20030;-66
2022/10/24 01:00:27;;;;;;;17.55;4.80;;;;;;;;;;5033027;28;20338;-66
2022/10/24 01:02:53;;;;;;;12.25;4.88;;;;;;;;;;5031524;28;20026;-65
2022/10/24 01:05:19;;;;;;;17.77;5.03;;;;;;;;;;5040733;28;20379;-68
2022/10/24 01:08:04;;;;;;;13.32;5.22;;;;;;;;;;5043116;28;20021;-67
2022/10/24 01:10:39;;;;;;;14.60;4.90;;;;;;;;;;5033410;28;20029;-66
2022/10/24 01:13:07;;;;;;;17.60;5.82;;;;;;;;;;5032587;28;20471;-66
2022/10/24 01:15:32;;;;;;;14.68;6.85;;;;;;;;;;5032480;28;20021;-67
2022/10/24 01:18:16;;;;;;;16.90;5.23;;;;;;;;;;5032661;28;20144;-67
2022/10/24 01:20:44;;;;;;;21.52;6.15;;;;;;;;;;5029010;28;20357;-65
2022/10/24 01:23:22;;;;;;;14.45;5.55;;;;;;;;;;5033030;28;20048;-66
2022/10/24 01:25:47;;;;;;;9.77;4.15;;;;;;;;;;5032232;28;20018;-67
2022/10/24 01:28:14;;;;;;;12.55;5.10;;;;;;;;;;5039353;28;20070;-65
2022/10/24 01:30:46;;;;;;;22.40;5.40;;;;;;;;;;5046051;28;20407;-67
2022/10/24 01:33:15;;;;;;;15.43;5.05;;;;;;;;;;5032386;28;20025;-67
2022/10/24 01:35:49;;;;;;;17.40;5.78;;;;;;;;;;5031707;28;20014;-67
2022/10/24 01:38:34;;;;;;;18.90;4.93;;;;;;;;;;5032349;28;20032;-66
2022/10/24 01:41:08;;;;;;;15.35;5.18;;;;;;;;;;5042553;28;20040;-66
2022/10/24 01:43:35;;;;;;;11.70;4.60;;;;;;;;;;5031883;28;20020;-67
2022/10/24 01:46:01;;;;;;;18.33;5.28;;;;;;;;;;5032730;28;20021;-67
2022/10/24 01:48:28;;;;;;;12.55;4.47;;;;;;;;;;5032560;28;20091;-67
2022/10/24 01:50:54;;;;;;;16.70;5.32;;;;;;;;;;5035431;28;20022;-66
2022/10/24 01:53:21;;;;;;;12.65;4.47;;;;;;;;;;5034325;28;20049;-66
2022/10/24 01:55:48;;;;;;;11.85;3.95;;;;;;;;;;5036237;28;20024;-67
2022/10/24 01:58:13;;;;;;;30.13;7.38;;;;;;;;;;5038629;28;20017;-67
2022/10/24 02:00:39;;;;;;;13.13;4.75;;;;;;;;;;5034583;28;20021;-68
2022/10/24 02:03:17;;;;;;;16.80;5.38;;;;;;;;;;5037588;28;20013;-67
2022/10/24 02:05:44;;;;;;;14.02;5.32;;;;;;;;;;5044609;28;20112;-66
2022/10/24 02:08:11;;;;;;;13.05;4.88;;;;;;;;;;5013443;28;20028;-67
2022/10/24 02:10:40;;;;;;;17.20;5.90;;;;;;;;;;5013753;28;20025;-67
2022/10/24 02:13:13;;;;;;;21.27;6.32;;;;;;;;;;5031711;28;20075;-65
2022/10/24 02:15:40;;;;;;;17.15;6.03;;;;;;;;;;5031722;28;20018;-68
2022/10/24 02:18:07;;;;;;;16.90;5.72;;;;;;;;;;5031231;28;20036;-66
2022/10/24 02:20:35;;;;;;;15.73;6.63;;;;;;;;;;5031322;28;20430;-67
2022/10/24 02:23:04;;;;;;;18.08;6.57;;;;;;;;;;5019553;28;20025;-68
2022/10/24 02:25:32;;;;;;;16.00;5.28;;;;;;;;;;5030971;28;20068;-68
2022/10/24 02:28:03;;;;;;;14.30;5.25;;;;;;;;;;5038757;28;20506;-68
2022/10/24 02:30:31;;;;;;;21.08;6.78;;;;;;;;;;5039827;28;20036;-68
2022/10/24 02:32:57;;;;;;;15.40;5.57;;;;;;;;;;5031812;28;20507;-67
2022/10/24 02:35:27;;;;;;;18.27;5.55;;;;;;;;;;5031024;28;20036;-66
2022/10/24 02:37:56;;;;;;;18.52;5.93;;;;;;;;;;5030930;28;20022;-66
2022/10/24 02:40:22;;;;;;;18.85;6.07;;;;;;;;;;5031459;28;20025;-68
2022/10/24 02:42:49;;;;;;;13.32;4.97;;;;;;;;;;5031066;28;20086;-67
2022/10/24 02:45:14;;;;;;;16.42;6.15;;;;;;;;;;5030460;28;20014;-68
2022/10/24 02:47:41;;;;;;;11.02;4.85;;;;;;;;;;5030893;28;20117;-67
2022/10/24 02:50:07;;;;;;;16.20;6.72;;;;;;;;;;5036427;28;20040;-65
2022/10/24 02:52:33;;;;;;;20.02;6.28;;;;;;;;;;5030658;28;20025;-67
2022/10/24 02:54:58;;;;;;;17.95;5.70;;;;;;;;;;5030697;28;20039;-66
2022/10/24 02:57:25;;;;;;;17.33;5.87;;;;;;;;;;5030628;28;20105;-67
2022/10/24 02:59:50;;;;;;;16.20;6.07;;;;;;;;;;5030485;28;20267;-68
2022/10/24 03:02:15;;;;;;;15.00;5.30;;;;;;;;;;5031132;28;20022;-66
2022/10/24 03:04:41;;;;;;;14.95;5.15;;;;;;;;;;5028696;28;20103;-68
2022/10/24 03:07:06;;;;;;;12.82;5.50;;;;;;;;;;5043099;28;20021;-67
2022/10/24 03:09:31;;;;;;;20.27;4.97;;;;;;;;;;5036986;28;20048;-69
2022/10/24 03:11:56;;;;;;;16.58;5.78;;;;;;;;;;5049647;28;20158;-69
2022/10/24 03:14:22;;;;;;;13.88;4.78;;;;;;;;;;5030415;28;20037;-68
2022/10/24 03:16:47;;;;;;;17.38;5.05;;;;;;;;;;5030673;28;20025;-68
2022/10/24 03:19:12;;;;;;;24.85;5.97;;;;;;;;;;5034220;28;20078;-66
2022/10/24 03:21:38;;;;;;;18.03;4.93;;;;;;;;;;5038700;28;20021;-67
2022/10/24 03:24:04;;;;;;;22.65;5.70;;;;;;;;;;5034844;28;20304;-66
2022/10/24 03:26:29;;;;;;;19.35;5.00;;;;;;;;;;5038844;28;20029;-68
2022/10/24 03:28:54;;;;;;;24.08;5.07;;;;;;;;;;5024079;28;20017;-67
2022/10/24 03:31:19;;;;;;;16.30;4.47;;;;;;;;;;5040611;28;20059;-69
2022/10/24 03:33:45;;;;;;;19.25;4.80;;;;;;;;;;5033210;28;20025;-67
2022/10/24 03:36:10;;;;;;;17.00;5.55;;;;;;;;;;5029721;28;20025;-67
2022/10/24 03:38:35;;;;;;;24.33;4.53;;;;;;;;;;5033284;28;20108;-67
2022/10/24 03:41:00;;;;;;;12.65;4.13;;;;;;;;;;5040006;28;20155;-65
2022/10/24 03:43:26;;;;;;;17.20;4.68;;;;;;;;;;5030374;28;20024;-67
2022/10/24 03:45:51;;;;;;;31.40;5.57;;;;;;;;;;5030090;28;20076;-67
2022/10/24 03:48:17;;;;;;;17.40;4.13;;;;;;;;;;5029963;28;20420;-68
2022/10/24 03:50:42;;;;;;;21.60;4.70;;;;;;;;;;5026099;28;20263;-67
2022/10/24 03:53:07;;;;;;;15.77;4.57;;;;;;;;;;5028956;28;20019;-67
2022/10/24 03:55:33;;;;;;;18.50;4.63;;;;;;;;;;5035880;28;20048;-66
2022/10/24 03:57:58;;;;;;;20.45;4.40;;;;;;;;;;5029915;28;20024;-67
2022/10/24 04:00:26;;;;;;;25.15;4.47;;;;;;;;;;5030294;28;20013;-67
2022/10/24 04:02:52;;;;;;;23.57;4.07;;;;;;;;;;5028821;28;20014;-67
2022/10/24 04:05:17;;;;;;;14.80;3.95;;;;;;;;;;5041177;28;20262;-66
2022/10/24 04:07:42;;;;;;;22.80;4.35;;;;;;;;;;5040452;28;20053;-67
2022/10/24 04:10:08;;;;;;;16.17;3.13;;;;;;;;;;5029491;28;20096;-68
2022/10/24 04:12:33;;;;;;;25.77;5.28;;;;;;;;;;5030150;28;20266;-68
2022/10/24 04:14:58;;;;;;;16.15;3.75;;;;;;;;;;5029593;28;20029;-67
2022/10/24 04:17:23;;;;;;;12.13;3.40;;;;;;;;;;5029493;28;20028;-67
2022/10/24 04:19:49;;;;;;;19.40;3.90;;;;;;;;;;5029763;28;20286;-66
2022/10/24 04:22:14;;;;;;;19.02;4.07;;;;;;;;;;5032314;28;20426;-67
2022/10/24 04:24:39;;;;;;;23.73;3.50;;;;;;;;;;5039676;28;20013;-66
2022/10/24 04:27:05;;;;;;;15.55;4.55;;;;;;;;;;5042834;28;20020;-67
2022/10/24 04:29:31;;;;;;;19.17;5.00;;;;;;;;;;5025837;28;20491;-66
2022/10/24 04:31:56;;;;;;;17.55;3.92;;;;;;;;;;5031048;28;20013;-67
2022/10/24 04:34:21;;;;;;;15.45;4.47;;;;;;;;;;5042340;28;20240;-66
2022/10/24 04:36:46;;;;;;;16.08;3.90;;;;;;;;;;5037092;28;20035;-67
2022/10/24 04:39:12;;;;;;;21.88;4.90;;;;;;;;;;5033635;28;20021;-67
2022/10/24 04:41:37;;;;;;;17.47;4.27;;;;;;;;;;5046712;28;20083;-66
2022/10/24 04:44:02;;;;;;;19.87;3.83;;;;;;;;;;5033886;28;20604;-67
2022/10/24 04:46:27;;;;;;;12.10;2.90;;;;;;;;;;5032832;28;20309;-67
2022/10/24 04:48:52;;;;;;;18.55;3.53;;;;;;;;;;5033015;28;20286;-67
2022/10/24 04:51:18;;;;;;;17.73;3.50;;;;;;;;;;5031257;28;20052;-68
2022/10/24 04:53:43;;;;;;;20.67;4.20;;;;;;;;;;5033369;28;20779;-66
2022/10/24 04:56:08;;;;;;;15.95;3.63;;;;;;;;;;5033343;28;20029;-66
2022/10/24 04:58:33;;;;;;;11.45;3.97;;;;;;;;;;5033688;28;20021;-67
2022/10/24 05:00:58;;;;;;;20.77;4.03;;;;;;;;;;5035631;28;20025;-68
2022/10/24 05:03:24;;;;;;;12.77;4.32;;;;;;;;;;5044713;28;20009;-67
2022/10/24 05:05:49;;;;;;;15.45;3.90;;;;;;;;;;5050118;28;20017;-66
2022/10/24 05:08:14;;;;;;;12.32;3.78;;;;;;;;;;5047497;28;20018;-67
2022/10/24 05:10:40;;;;;;;21.20;4.80;;;;;;;;;;5041605;28;20024;-66
2022/10/24 05:13:05;;;;;;;25.33;4.68;;;;;;;;;;5036062;28;20120;-67
2022/10/24 05:15:30;;;;;;;14.90;3.30;;;;;;;;;;5036977;28;20021;-67
2022/10/24 05:17:56;;;;;;;17.60;3.78;;;;;;;;;;5034892;28;20034;-68
2022/10/24 05:20:21;;;;;;;21.00;3.63;;;;;;;;;;5032336;28;20547;-67
2022/10/24 05:22:47;;;;;;;11.55;3.55;;;;;;;;;;5032646;28;20097;-68
2022/10/24 05:25:12;;;;;;;18.13;3.85;;;;;;;;;;5032040;28;20041;-66
2022/10/24 05:27:37;;;;;;;16.52;3.05;;;;;;;;;;5033013;28;20105;-67
2022/10/24 05:30:03;;;;;;;13.45;3.50;;;;;;;;;;5031999;28;20013;-67
2022/10/24 05:32:28;;;;;;;15.95;3.22;;;;;;;;;;5032948;28;20051;-67
2022/10/24 05:34:53;;;;;;;12.27;2.80;;;;;;;;;;5032024;28;20401;-66
2022/10/24 05:37:19;;;;;;;16.95;2.88;;;;;;;;;;5032505;28;20387;-67
2022/10/24 05:39:44;;;;;;;8.77;3.10;;;;;;;;;;5032316;28;20022;-67
2022/10/24 05:42:10;;;;;;;9.90;3.00;;;;;;;;;;5032734;28;20017;-67
2022/10/24 05:44:35;;;;;;;11.80;3.08;;;;;;;;;;5032129;28;20068;-66
2022/10/24 05:47:00;;;;;;;8.07;2.92;;;;;;;;;;5032240;28;20029;-68
2022/10/24 05:49:25;;;;;;;17.90;3.57;;;;;;;;;;5032836;28;20029;-67
2022/10/24 05:51:50;;;;;;;22.45;3.30;;;;;;;;;;5031609;28;20273;-66
2022/10/24 05:54:16;;;;;;;10.30;3.20;;;;;;;;;;5018490;28;20040;-68
2022/10/24 05:56:41;;;;;;;14.43;3.45;;;;;;;;;;5033823;28;20060;-66
2022/10/24 05:59:06;;;;;;;17.48;5.00;;;;;;;;;;5040979;28;20097;-67
2022/10/24 06:01:31;;;;;;;8.25;3.10;;;;;;;;;;5037145;28;20077;-67
2022/10/24 06:03:57;;;;;;;11.95;2.83;;;;;;;;;;5038194;28;20098;-68
2022/10/24 06:06:23;;;;;;;18.20;3.10;;;;;;;;;;5040490;28;20024;-68
2022/10/24 06:08:48;;;;;;;16.60;2.85;;;;;;;;;;5038895;28;20024;-67
2022/10/24 06:11:13;;;;;;;15.20;3.30;;;;;;;;;;5037535;28;20029;-66
2022/10/24 06:13:39;;;;;;;13.27;2.63;;;;;;;;;;5039855;28;20026;-67
2022/10/24 06:16:04;;;;;;;10.90;2.75;;;;;;;;;;5031357;28;20021;-66
2022/10/24 06:18:29;;;;;;;16.15;3.00;;;;;;;;;;5030983;28;20018;-67
2022/10/24 06:20:58;;;;;;;11.32;2.80;;;;;;;;;;5019022;28;20017;-67
2022/10/24 06:23:26;;;;;;;9.73;2.95;;;;;;;;;;5039226;28;20017;-67
2022/10/24 06:25:51;;;;;;;15.82;3.33;;;;;;;;;;5045185;28;20021;-66
2022/10/24 06:28:16;;;;;;;28.30;4.68;;;;;;;;;;5031019;28;20025;-70
2022/10/24 06:30:42;;;;;;;12.40;2.80;;;;;;;;;;5032072;28;20108;-68
2022/10/24 06:33:08;;;;;;;8.73;2.60;;;;;;;;;;5044381;28;20067;-67
2022/10/24 06:48:16;;;;;;;11.93;2.88;;;;;;;;;;5019789;28;20163;-91
2022/10/24 06:51:18;;;;;;;8.85;2.70;;;;;;;;;;4986555;28;20038;-92
2022/10/24 06:54:35;;;;;;;;;;;;;;;;;;;;;
2022/10/24 07:06:17;;;;;;;16.52;2.85;;;;;;;;;;5031982;28;20033;-93
2022/10/24 07:09:13;;;;;;;14.82;3.13;;;;;;;;;;5052980;28;20064;-90
2022/10/24 07:15:44;;;;;;;18.02;4.65;;;;;;;;;;4998758;28;20026;-92
2022/10/24 07:25:37;;;;;;;15.77;3.20;;;;;;;;;;4821835;29;20521;-91
2022/10/24 08:05:32;;;;;;;30.98;2.63;;;;;;;;;;4881099;29;20505;-92
2022/10/24 08:08:37;;;;;;;9.23;2.97;;;;;;;;;;4883862;29;20167;-92
2022/10/24 08:24:03;;;;;;;;;;;;;;;;;;;;;
2022/10/24 08:39:10;;;;;;;12.00;2.58;;;;;;;;;;4942099;28;20092;-89
2022/10/24 08:41:36;;;;;;;8.93;2.38;;;;;;;;;;5022844;22;20045;-68
2022/10/24 08:44:03;;;;;;;11.77;3.63;;;;;;;;;;5034141;28;20112;-67
2022/10/24 08:46:34;;;;;;;17.13;3.15;;;;;;;;;;5019792;28;20084;-66
2022/10/24 08:49:10;;;;;;;14.30;2.83;;;;;;;;;;5033149;28;20041;-66
2022/10/24 08:51:39;;;;;;;14.23;2.78;;;;;;;;;;5033148;28;20080;-68
2022/10/24 08:54:08;;;;;;;10.73;2.67;;;;;;;;;;5033424;28;20014;-67
2022/10/24 08:56:33;;;;;;;17.10;2.47;;;;;;;;;;5033556;28;20075;-67
2022/10/24 08:58:59;;;;;;;13.18;2.85;;;;;;;;;;5033100;28;20515;-68
2022/10/24 09:01:34;;;;;;;12.18;2.30;;;;;;;;;;5033991;28;20394;-68
2022/10/24 09:04:02;;;;;;;16.67;2.50;;;;;;;;;;5038241;28;20060;-68
2022/10/24 09:06:28;;;;;;;15.82;2.70;;;;;;;;;;5035600;28;20061;-68
2022/10/24 09:08:53;;;;;;;9.30;2.83;;;;;;;;;;5040520;28;20143;-67
2022/10/24 09:11:31;;;;;;;15.43;3.13;;;;;;;;;;5030902;28;20144;-68
2022/10/24 09:13:59;;;;;;;11.88;3.75;;;;;;;;;;5033994;28;20247;-68
2022/10/24 09:16:26;;;;;;;12.25;3.13;;;;;;;;;;5034139;28;20037;-66
2022/10/24 09:18:52;;;;;;;16.30;2.92;;;;;;;;;;5031964;28;20018;-68
2022/10/24 09:21:18;;;;;;;14.70;2.40;;;;;;;;;;5032520;28;20461;-68
2022/10/24 09:23:44;;;;;;;13.63;2.58;;;;;;;;;;5033855;28;20486;-66
2022/10/24 09:26:37;;;;;;;10.88;2.40;;;;;;;;;;5025993;28;20105;-69
2022/10/24 09:29:02;;;;;;;19.35;3.20;;;;;;;;;;5023143;28;20112;-67
2022/10/24 09:31:27;;;;;;;16.13;2.85;;;;;;;;;;5034524;28;20130;-66
2022/10/24 09:33:53;;;;;;;11.65;3.13;;;;;;;;;;5033154;28;20037;-68
2022/10/24 09:36:19;;;;;;;13.30;2.58;;;;;;;;;;5032786;28;20121;-68
2022/10/24 09:38:45;;;;;;;12.70;2.60;;;;;;;;;;5027827;28;20045;-66
2022/10/24 09:41:32;;;;;;;24.02;2.92;;;;;;;;;;5024190;28;20076;-66
2022/10/24 09:43:58;;;;;;;15.30;3.40;;;;;;;;;;5022255;28;20097;-67
2022/10/24 09:46:44;;;;;;;12.85;2.33;;;;;;;;;;5031469;28;20033;-67
2022/10/24 09:49:12;;;;;;;14.93;3.95;;;;;;;;;;5023188;28;20109;-66
2022/10/24 09:51:39;;;;;;;;;;;;;;;;;;5033573;28;20029;-67
2022/10/24 09:54:08;;;;;;;15.65;3.03;;;;;;;;;;5037939;28;19909;-67
2022/10/24 09:56:35;;;;;;;13.90;2.60;;;;;;;;;;5034207;28;20501;-64
2022/10/24 09:59:19;;;;;;;7.88;2.75;;;;;;;;;;5033536;28;20450;-69
2022/10/24 10:01:45;;;;;;;12.30;3.08;;;;;;;;;;5020062;28;20495;-68
2022/10/24 10:04:17;;;;;;;16.30;3.00;;;;;;;;;;5038693;28;20044;-67
2022/10/24 10:06:46;;;;;;;14.18;3.63;;;;;;;;;;5042023;28;20534;-67
2022/10/24 10:09:13;;;;;;;13.88;3.45;;;;;;;;;;5037066;28;20029;-67
2022/10/24 10:11:39;;;;;;;16.60;2.97;;;;;;;;;;5030734;28;20125;-68
2022/10/24 10:14:15;;;;;;;13.27;3.03;;;;;;;;;;5031976;28;20029;-69
2022/10/24 10:16:40;;;;;;;16.63;3.38;;;;;;;;;;5032114;28;20017;-67
2022/10/24 10:19:14;;;;;;;13.50;3.10;;;;;;;;;;5019506;28;20045;-68
2022/10/24 10:21:51;;;;;;;11.77;2.80;;;;;;;;;;5033124;28;20022;-66
2022/10/24 10:24:37;;;;;;;22.45;2.28;;;;;;;;;;5031555;28;20024;-68
2022/10/24 10:27:22;;;;;;;19.05;3.38;;;;;;;;;;5030333;28;20079;-68
2022/10/24 10:29:47;;;;;;;18.70;3.10;;;;;;;;;;5029763;28;20026;-67
2022/10/24 10:32:24;;;;;;;12.65;3.28;;;;;;;;;;5031463;28;20033;-68
2022/10/24 10:35:02;;;;;;;24.77;5.82;;;;;;;;;;5031608;28;20021;-69
2022/10/24 10:37:29;;;;;;;10.77;2.92;;;;;;;;;;5018904;28;20014;-69
2022/10/24 10:40:03;;;;;;;9.13;3.13;;;;;;;;;;5031852;28;20021;-68
2022/10/24 10:42:40;;;;;;;18.00;2.65;;;;;;;;;;5031955;28;20594;-68
2022/10/24 10:45:14;;;;;;;26.08;3.88;;;;;;;;;;5018392;28;20018;-67
2022/10/24 10:47:39;;;;;;;12.25;3.22;;;;;;;;;;5020793;28;20022;-68
2022/10/24 10:50:20;;;;;;;22.17;2.20;;;;;;;;;;5029385;28;20075;-68
2022/10/24 10:52:48;;;;;;;19.77;3.13;;;;;;;;;;5031967;28;20247;-68
2022/10/24 10:55:26;;;;;;;18.25;4.22;;;;;;;;;;5022845;28;20028;-67
2022/10/24 10:58:11;;;;;;;10.68;3.00;;;;;;;;;;5030637;28;20053;-67
2022/10/24 11:00:58;;;;;;;14.57;3.17;;;;;;;;;;5032050;28;20490;-67
2022/10/24 11:03:41;;;;;;;19.02;3.28;;;;;;;;;;5036857;28;20017;-68
2022/10/24 11:06:13;;;;;;;16.27;3.08;;;;;;;;;;5032096;28;20443;-67
2022/10/24 11:08:56;;;;;;;21.48;3.65;;;;;;;;;;5038359;28;20113;-66
2022/10/24 11:11:25;;;;;;;19.00;4.68;;;;;;;;;;5029234;28;20026;-68
2022/10/24 11:13:50;;;;;;;;;;;;;;;;;;5028804;28;20013;-67
2022/10/24 11:16:20;;;;;;;26.88;3.50;;;;;;;;;;5030467;28;19984;-69
2022/10/24 11:18:48;;;;;;;10.95;2.90;;;;;;;;;;5029318;28;20022;-68
2022/10/24 11:21:14;;;;;;;23.20;3.50;;;;;;;;;;5031318;28;20014;-68
2022/10/24 11:23:54;;;;;;;27.27;3.42;;;;;;;;;;5030332;28;20021;-66
2022/10/24 11:26:19;;;;;;;12.68;3.28;;;;;;;;;;5031630;28;20083;-67
2022/10/24 11:28:47;;;;;;;12.67;3.50;;;;;;;;;;5024587;28;20026;-68
2022/10/24 11:31:12;;;;;;;16.67;4.22;;;;;;;;;;5030929;28;20406;-67
2022/10/24 11:33:43;;;;;;;13.77;2.50;;;;;;;;;;5016331;28;20079;-68
2022/10/24 11:36:11;;;;;;;15.95;5.40;;;;;;;;;;5031161;28;20262;-67
2022/10/24 11:38:41;;;;;;;36.95;9.30;;;;;;;;;;5031215;28;20021;-66
2022/10/24 11:41:25;;;;;;;86.65;17.58;;;;;;;;;;5029420;28;20509;-68
2022/10/24 11:43:53;;;;;;;59.47;15.77;;;;;;;;;;5030685;28;20021;-67
2022/10/24 11:46:21;;;;;;;95.80;22.23;;;;;;;;;;5028074;28;20025;-68
2022/10/24 11:49:19;;;;;;;91.43;26.30;;;;;;;;;;5030161;28;20558;-65
2022/10/24 11:51:52;;;;;;;61.22;19.17;;;;;;;;;;4993875;28;20034;-69
2022/10/24 11:54:24;;;;;;;20.05;5.15;;;;;;;;;;5029985;28;20032;-68
2022/10/24 11:56:52;;;;;;;55.17;14.20;;;;;;;;;;5028370;28;20191;-67
2022/10/24 11:59:20;;;;;;;;;;;;;;;;;;5031581;28;20095;-69
2022/10/24 12:01:54;;;;;;;17.58;4.25;;;;;;;;;;5030524;28;19931;-66
2022/10/24 12:04:46;;;;;;;45.83;12.73;;;;;;;;;;5036234;28;20024;-68
2022/10/24 12:07:14;;;;;;;59.42;17.67;;;;;;;;;;5025932;28;20037;-67
2022/10/24 12:09:45;;;;;;;50.55;14.75;;;;;;;;;;5031423;28;20027;-69
2022/10/24 12:12:34;;;;;;;51.05;11.75;;;;;;;;;;5029624;28;20120;-67
2022/10/24 12:15:06;;;;;;;30.27;7.28;;;;;;;;;;5009890;28;20033;-67
2022/10/24 12:17:49;;;;;;;21.08;4.47;;;;;;;;;;5030104;28;20077;-67
2022/10/24 12:20:18;;;;;;;21.65;5.45;;;;;;;;;;5030596;28;20025;-67
2022/10/24 12:22:43;;;;;;;24.80;4.75;;;;;;;;;;5030795;28;20478;-68
2022/10/24 12:25:20;;;;;;;13.55;3.38;;;;;;;;;;5029417;28;20053;-67
2022/10/24 12:27:51;;;;;;;23.90;4.25;;;;;;;;;;5017405;28;20603;-67
2022/10/24 12:30:17;;;;;;;16.05;3.33;;;;;;;;;;5024687;28;20025;-66
2022/10/24 12:32:47;;;;;;;11.95;3.17;;;;;;;;;;5030476;28;20036;-67
2022/10/24 12:35:32;;;;;;;13.07;4.60;;;;;;;;;;5030518;28;20029;-69
2022/10/24 12:37:58;;;;;;;8.15;2.00;;;;;;;;;;5031080;28;20018;-68
2022/10/24 12:40:42;;;;;;;8.68;2.08;;;;;;;;;;5029625;28;20048;-67
2022/10/24 12:43:12;;;;;;;12.27;2.10;;;;;;;;;;5030534;28;20151;-67
2022/10/24 12:45:38;;;;;;;13.57;2.25;;;;;;;;;;5030460;28;20013;-68
2022/10/24 12:48:22;;;;;;;17.83;3.00;;;;;;;;;;5029097;28;20034;-67
2022/10/24 12:50:55;;;;;;;16.02;2.10;;;;;;;;;;5020653;28;20113;-67
2022/10/24 12:53:30;;;;;;;9.05;2.42;;;;;;;;;;5032005;28;20033;-68
2022/10/24 12:55:55;;;;;;;10.45;2.10;;;;;;;;;;5033396;28;20032;-67
2022/10/24 12:58:20;;;;;;;18.13;2.53;;;;;;;;;;5032977;28;20022;-67
2022/10/24 13:00:57;;;;;;;11.10;2.47;;;;;;;;;;5022455;28;20267;-67
2022/10/24 13:03:37;;;;;;;10.07;2.05;;;;;;;;;;5037778;28;20250;-67
2022/10/24 13:06:03;;;;;;;6.97;1.90;;;;;;;;;;5040491;28;20025;-68
2022/10/24 13:08:43;;;;;;;12.43;2.07;;;;;;;;;;5039741;28;20030;-66
2022/10/24 13:11:21;;;;;;;7.93;1.60;;;;;;;;;;5031615;28;20346;-69
2022/10/24 13:14:05;;;;;;;9.57;2.30;;;;;;;;;;5030577;28;20024;-67
2022/10/24 13:16:33;;;;;;;6.28;1.48;;;;;;;;;;5026612;28;20057;-67
2022/10/24 13:19:01;;;;;;;10.10;2.50;;;;;;;;;;5031544;28;20691;-67
2022/10/24 13:21:26;;;;;;;7.90;1.58;;;;;;;;;;5033650;28;20506;-69
2022/10/24 13:23:52;;;;;;;5.17;1.43;;;;;;;;;;5034159;28;20017;-69
2022/10/24 13:26:52;;;;;;;11.70;1.73;;;;;;;;;;5032275;28;20338;-66
2022/10/24 13:29:26;;;;;;;6.70;1.70;;;;;;;;;;4994122;28;20029;-67
2022/10/24 13:31:53;;;;;;;6.57;1.60;;;;;;;;;;5033073;28;20024;-67
2022/10/24 13:34:21;;;;;;;7.85;1.67;;;;;;;;;;5024193;28;20079;-69
2022/10/24 13:36:49;;;;;;;8.55;2.15;;;;;;;;;;5027666;28;20024;-67
2022/10/24 13:39:16;;;;;;;11.40;2.57;;;;;;;;;;5032557;28;20033;-68
2022/10/24 13:41:49;;;;;;;14.63;2.45;;;;;;;;;;5031874;28;20040;-67
2022/10/24 13:44:14;;;;;;;19.42;2.10;;;;;;;;;;5032426;28;20648;-67
2022/10/24 13:46:39;;;;;;;10.50;1.50;;;;;;;;;;5032572;28;20040;-66
2022/10/24 13:49:05;;;;;;;14.45;2.22;;;;;;;;;;5031340;28;20017;-67
2022/10/24 13:51:33;;;;;;;11.18;1.77;;;;;;;;;;5029111;28;20587;-67
2022/10/24 13:54:01;;;;;;;13.68;2.55;;;;;;;;;;5033896;28;20044;-67
2022/10/24 13:56:26;;;;;;;14.63;2.33;;;;;;;;;;5035388;28;20029;-69
2022/10/24 13:58:52;;;;;;;13.45;3.05;;;;;;;;;;5031242;28;20165;-66
2022/10/24 14:01:22;;;;;;;11.40;2.43;;;;;;;;;;5019387;28;20071;-68
2022/10/24 14:03:48;;;;;;;9.60;2.00;;;;;;;;;;5038273;28;20254;-67
2022/10/24 14:06:13;;;;;;;11.93;2.20;;;;;;;;;;5039620;28;20032;-69
2022/10/24 14:08:43;;;;;;;7.57;2.00;;;;;;;;;;5039021;28;20025;-67
2022/10/24 14:11:13;;;;;;;14.68;2.05;;;;;;;;;;5032070;28;20294;-67
2022/10/24 14:13:43;;;;;;;11.70;1.98;;;;;;;;;;5031833;28;20022;-67
2022/10/24 14:16:09;;;;;;;10.27;2.22;;;;;;;;;;5031526;28;20022;-67
2022/10/24 14:18:36;;;;;;;11.70;1.95;;;;;;;;;;5031717;28;20514;-67
2022/10/24 14:21:04;;;;;;;11.70;2.28;;;;;;;;;;5030865;28;20021;-68
2022/10/24 14:23:30;;;;;;;13.35;2.35;;;;;;;;;;5030663;28;20025;-70
2022/10/24 14:25:58;;;;;;;8.10;2.25;;;;;;;;;;5031364;28;20029;-67
2022/10/24 14:28:30;;;;;;;6.50;1.90;;;;;;;;;;5026111;28;20388;-67
2022/10/24 14:30:56;;;;;;;17.98;2.55;;;;;;;;;;5040810;28;20087;-65
2022/10/24 14:33:24;;;;;;;13.30;2.03;;;;;;;;;;5032006;28;20037;-66
2022/10/24 14:35:50;;;;;;;11.93;3.40;;;;;;;;;;5024490;28;20037;-66
2022/10/24 14:38:16;;;;;;;17.67;2.63;;;;;;;;;;5027350;28;20028;-64
2022/10/24 14:40:42;;;;;;;14.30;2.00;;;;;;;;;;5031494;28;20029;-67
2022/10/24 14:43:12;;;;;;;13.13;2.25;;;;;;;;;;5031377;28;20052;-65
2022/10/24 14:45:38;;;;;;;9.02;1.80;;;;;;;;;;5031729;28;20505;-66
2022/10/24 14:48:13;;;;;;;11.02;2.17;;;;;;;;;;5031645;28;20049;-68
2022/10/24 14:50:39;;;;;;;24.77;2.88;;;;;;;;;;5030853;28;20037;-67
2022/10/24 14:53:05;;;;;;;7.57;2.30;;;;;;;;;;5031348;28;20029;-67
2022/10/24 14:55:30;;;;;;;10.52;1.90;;;;;;;;;;5029945;28;20449;-66
2022/10/24 14:57:56;;;;;;;11.27;2.50;;;;;;;;;;5030891;28;20033;-67
2022/10/24 15:00:22;;;;;;;15.02;1.83;;;;;;;;;;5031708;28;20013;-66
2022/10/24 15:02:49;;;;;;;13.90;2.78;;;;;;;;;;5027434;28;20404;-68
2022/10/24 15:05:21;;;;;;;13.40;3.00;;;;;;;;;;5042886;28;20009;-67
2022/10/24 15:08:07;;;;;;;15.45;2.53;;;;;;;;;;5039663;28;20087;-67
2022/10/24 15:10:38;;;;;;;9.02;2.05;;;;;;;;;;4990976;28;20034;-67
2022/10/24 15:13:20;;;;;;;10.13;3.00;;;;;;;;;;5020809;28;20243;-65
2022/10/24 15:15:48;;;;;;;7.00;2.15;;;;;;;;;;5030933;28;20031;-68
2022/10/24 15:18:19;;;;;;;4.88;1.88;;;;;;;;;;5030666;28;20022;-66
2022/10/24 15:20:46;;;;;;;7.40;2.33;;;;;;;;;;5031750;28;20017;-68
2022/10/24 15:23:44;;;;;;;12.93;2.38;;;;;;;;;;5030272;28;20020;-68
2022/10/24 15:26:15;;;;;;;10.43;2.08;;;;;;;;;;4997309;28;20068;-68
2022/10/24 15:28:46;;;;;;;18.13;3.13;;;;;;;;;;5024512;28;20464;-67
2022/10/24 15:31:12;;;;;;;11.02;3.60;;;;;;;;;;5031236;28;20023;-66
2022/10/24 15:33:38;;;;;;;9.50;2.08;;;;;;;;;;5030946;28;20014;-67
2022/10/24 15:36:03;;;;;;;9.85;2.30;;;;;;;;;;5030660;28;20083;-66
2022/10/24 15:38:28;;;;;;;9.77;3.15;;;;;;;;;;5030332;28;20041;-68
2022/10/24 15:40:54;;;;;;;10.23;2.35;;;;;;;;;;5022471;28;20029;-66
2022/10/24 15:43:19;;;;;;;9.85;2.30;;;;;;;;;;5026647;28;20090;-66
2022/10/24 15:45:44;;;;;;;14.23;2.42;;;;;;;;;;5023403;28;20053;-67
2022/10/24 15:48:09;;;;;;;15.20;2.67;;;;;;;;;;5023831;28;20021;-68
2022/10/24 15:50:35;;;;;;;10.43;2.33;;;;;;;;;;5018013;28;20034;-67
2022/10/24 15:53:02;;;;;;;15.60;2.65;;;;;;;;;;5029891;28;20021;-77
2022/10/24 15:55:28;;;;;;;11.80;1.90;;;;;;;;;;5036874;28;20030;-67
2022/10/24 15:57:53;;;;;;;7.13;1.92;;;;;;;;;;5026276;28;20388;-67
2022/10/24 16:00:20;;;;;;;9.80;1.77;;;;;;;;;;5029591;28;20029;-67
2022/10/24 16:02:47;;;;;;;15.27;2.55;;;;;;;;;;5025970;28;20026;-66
2022/10/24 16:05:17;;;;;;;11.15;2.88;;;;;;;;;;5029136;28;20151;-68
2022/10/24 16:07:42;;;;;;;14.82;2.58;;;;;;;;;;5041576;28;20039;-65
2022/10/24 16:10:09;;;;;;;13.27;2.65;;;;;;;;;;5029301;28;20017;-67
2022/10/24 16:12:34;;;;;;;12.93;2.55;;;;;;;;;;5029073;28;20033;-66
2022/10/24 16:14:59;;;;;;;8.30;2.10;;;;;;;;;;5030729;28;20076;-66
2022/10/24 16:17:24;;;;;;;17.10;3.30;;;;;;;;;;5030964;28;20835;-68
2022/10/24 16:19:49;;;;;;;15.63;3.20;;;;;;;;;;5031279;28;20360;-66
2022/10/24 16:22:15;;;;;;;10.93;2.72;;;;;;;;;;5030700;28;20014;-67